sensor_id;sensor_type;location;lat;lon;timestamp;P1;durP1;ratioP1;P2;durP2;ratioP2
7647;SDS011;3866;48.020;11.720;2024-02-16T00:00:34;4.97;;;3.90;;
7647;SDS011;3866;48.020;11.720;2024-02-16T00:03:01;4.60;;;3.47;;
7647;SDS011;3866;48.020;11.720;2024-02-16T00:05:28;4.80;;;3.50;;
7647;SDS011;3866;48.020;11.720;2024-02-16T00:07:56;4.73;;;3.53;;
7647;SDS011;3866;48.020;11.720;2024-02-16T00:10:23;4.43;;;3.43;;
7647;SDS011;3866;48.020;11.720;2024-02-16T00:12:50;6.20;;;4.20;;
7647;SDS011;3866;48.020;11.720;2024-02-16T00:15:17;3.97;;;3.57;;
7647;SDS011;3866;48.020;11.720;2024-02-16T00:17:44;4.13;;;3.73;;
7647;SDS011;3866;48.020;11.720;2024-02-16T00:20:11;4.07;;;3.50;;
7647;SDS011;3866;48.020;11.720;2024-02-16T00:22:38;2.97;;;2.67;;
7647;SDS011;3866;48.020;11.720;2024-02-16T00:25:07;4.37;;;4.00;;
7647;SDS011;3866;48.020;11.720;2024-02-16T00:27:34;4.30;;;3.63;;
7647;SDS011;3866;48.020;11.720;2024-02-16T00:30:01;3.90;;;3.10;;
7647;SDS011;3866;48.020;11.720;2024-02-16T00:32:28;3.73;;;3.30;;
7647;SDS011;3866;48.020;11.720;2024-02-16T00:34:56;3.90;;;3.37;;
7647;SDS011;3866;48.020;11.720;2024-02-16T00:37:24;3.93;;;3.07;;
7647;SDS011;3866;48.020;11.720;2024-02-16T00:39:51;5.90;;;3.67;;
7647;SDS011;3866;48.020;11.720;2024-02-16T00:42:21;4.40;;;3.73;;
7647;SDS011;3866;48.020;11.720;2024-02-16T00:44:48;6.03;;;3.70;;
7647;SDS011;3866;48.020;11.720;2024-02-16T00:47:15;3.90;;;3.60;;
7647;SDS011;3866;48.020;11.720;2024-02-16T00:49:42;4.47;;;3.63;;
7647;SDS011;3866;48.020;11.720;2024-02-16T00:52:09;5.77;;;3.50;;
7647;SDS011;3866;48.020;11.720;2024-02-16T00:54:36;5.77;;;4.17;;
7647;SDS011;3866;48.020;11.720;2024-02-16T00:57:03;4.73;;;3.60;;
7647;SDS011;3866;48.020;11.720;2024-02-16T00:59:32;3.80;;;3.50;;
7647;SDS011;3866;48.020;11.720;2024-02-16T01:01:59;4.13;;;3.30;;
7647;SDS011;3866;48.020;11.720;2024-02-16T01:04:25;4.70;;;3.43;;
7647;SDS011;3866;48.020;11.720;2024-02-16T01:06:52;4.70;;;3.53;;
7647;SDS011;3866;48.020;11.720;2024-02-16T01:09:19;6.50;;;3.57;;
7647;SDS011;3866;48.020;11.720;2024-02-16T01:11:46;3.40;;;2.93;;
7647;SDS011;3866;48.020;11.720;2024-02-16T01:14:14;3.10;;;2.80;;
7647;SDS011;3866;48.020;11.720;2024-02-16T01:16:42;6.13;;;3.37;;
7647;SDS011;3866;48.020;11.720;2024-02-16T01:19:09;3.87;;;3.30;;
7647;SDS011;3866;48.020;11.720;2024-02-16T01:21:36;3.63;;;3.20;;
7647;SDS011;3866;48.020;11.720;2024-02-16T01:24:02;4.13;;;2.83;;
7647;SDS011;3866;48.020;11.720;2024-02-16T01:26:30;3.47;;;3.17;;
7647;SDS011;3866;48.020;11.720;2024-02-16T01:28:57;4.97;;;3.13;;
7647;SDS011;3866;48.020;11.720;2024-02-16T01:31:24;4.57;;;3.17;;
7647;SDS011;3866;48.020;11.720;2024-02-16T01:33:52;3.20;;;2.90;;
7647;SDS011;3866;48.020;11.720;2024-02-16T01:36:19;3.67;;;2.90;;
7647;SDS011;3866;48.020;11.720;2024-02-16T01:38:46;3.47;;;2.70;;
7647;SDS011;3866;48.020;11.720;2024-02-16T01:41:13;4.47;;;3.37;;
7647;SDS011;3866;48.020;11.720;2024-02-16T01:43:40;3.07;;;2.80;;
7647;SDS011;3866;48.020;11.720;2024-02-16T01:46:07;5.00;;;3.30;;
7647;SDS011;3866;48.020;11.720;2024-02-16T01:48:34;3.07;;;2.63;;
7647;SDS011;3866;48.020;11.720;2024-02-16T01:51:03;3.10;;;2.80;;
7647;SDS011;3866;48.020;11.720;2024-02-16T01:53:32;4.30;;;3.40;;
7647;SDS011;3866;48.020;11.720;2024-02-16T01:56:01;3.70;;;3.00;;
7647;SDS011;3866;48.020;11.720;2024-02-16T01:58:29;4.70;;;3.47;;
7647;SDS011;3866;48.020;11.720;2024-02-16T02:00:55;3.40;;;2.73;;
7647;SDS011;3866;48.020;11.720;2024-02-16T02:03:22;5.37;;;3.53;;
7647;SDS011;3866;48.020;11.720;2024-02-16T02:05:49;6.37;;;3.80;;
7647;SDS011;3866;48.020;11.720;2024-02-16T02:08:20;4.87;;;3.23;;
7647;SDS011;3866;48.020;11.720;2024-02-16T02:10:47;3.50;;;3.20;;
7647;SDS011;3866;48.020;11.720;2024-02-16T02:13:15;4.27;;;3.87;;
7647;SDS011;3866;48.020;11.720;2024-02-16T02:15:42;3.43;;;2.80;;
7647;SDS011;3866;48.020;11.720;2024-02-16T02:18:09;15.60;;;7.93;;
7647;SDS011;3866;48.020;11.720;2024-02-16T02:20:35;3.00;;;2.53;;
7647;SDS011;3866;48.020;11.720;2024-02-16T02:23:04;4.87;;;2.87;;
7647;SDS011;3866;48.020;11.720;2024-02-16T02:25:30;4.77;;;2.60;;
7647;SDS011;3866;48.020;11.720;2024-02-16T02:27:57;3.50;;;2.63;;
7647;SDS011;3866;48.020;11.720;2024-02-16T02:30:24;4.50;;;2.57;;
7647;SDS011;3866;48.020;11.720;2024-02-16T02:32:51;2.17;;;2.07;;
7647;SDS011;3866;48.020;11.720;2024-02-16T02:35:18;3.00;;;2.63;;
7647;SDS011;3866;48.020;11.720;2024-02-16T02:37:45;2.83;;;2.53;;
7647;SDS011;3866;48.020;11.720;2024-02-16T02:40:13;3.43;;;2.40;;
7647;SDS011;3866;48.020;11.720;2024-02-16T02:42:40;2.80;;;2.30;;
7647;SDS011;3866;48.020;11.720;2024-02-16T02:45:07;3.53;;;2.53;;
7647;SDS011;3866;48.020;11.720;2024-02-16T02:47:34;4.50;;;2.80;;
7647;SDS011;3866;48.020;11.720;2024-02-16T02:50:01;3.67;;;2.83;;
7647;SDS011;3866;48.020;11.720;2024-02-16T02:52:29;4.17;;;2.90;;
7647;SDS011;3866;48.020;11.720;2024-02-16T02:54:56;3.27;;;2.60;;
7647;SDS011;3866;48.020;11.720;2024-02-16T02:57:24;2.97;;;2.70;;
7647;SDS011;3866;48.020;11.720;2024-02-16T02:59:51;2.87;;;2.50;;
7647;SDS011;3866;48.020;11.720;2024-02-16T03:02:18;4.23;;;2.37;;
7647;SDS011;3866;48.020;11.720;2024-02-16T03:04:45;3.57;;;2.53;;
7647;SDS011;3866;48.020;11.720;2024-02-16T03:07:11;3.33;;;2.70;;
7647;SDS011;3866;48.020;11.720;2024-02-16T03:09:40;5.17;;;2.73;;
7647;SDS011;3866;48.020;11.720;2024-02-16T03:12:08;2.30;;;2.10;;
7647;SDS011;3866;48.020;11.720;2024-02-16T03:14:37;6.40;;;2.73;;
7647;SDS011;3866;48.020;11.720;2024-02-16T03:17:04;2.93;;;2.70;;
7647;SDS011;3866;48.020;11.720;2024-02-16T03:19:31;2.97;;;2.33;;
7647;SDS011;3866;48.020;11.720;2024-02-16T03:21:58;2.47;;;2.17;;
7647;SDS011;3866;48.020;11.720;2024-02-16T03:24:25;2.30;;;2.10;;
7647;SDS011;3866;48.020;11.720;2024-02-16T03:26:52;3.03;;;2.40;;
7647;SDS011;3866;48.020;11.720;2024-02-16T03:29:19;2.83;;;2.53;;
7647;SDS011;3866;48.020;11.720;2024-02-16T03:31:47;2.80;;;2.50;;
7647;SDS011;3866;48.020;11.720;2024-02-16T03:34:14;4.43;;;2.60;;
7647;SDS011;3866;48.020;11.720;2024-02-16T03:36:40;4.23;;;2.73;;
7647;SDS011;3866;48.020;11.720;2024-02-16T03:39:07;2.87;;;2.30;;
7647;SDS011;3866;48.020;11.720;2024-02-16T03:41:35;4.50;;;2.60;;
7647;SDS011;3866;48.020;11.720;2024-02-16T03:44:01;2.60;;;2.20;;
7647;SDS011;3866;48.020;11.720;2024-02-16T03:46:28;3.03;;;2.10;;
7647;SDS011;3866;48.020;11.720;2024-02-16T03:48:56;2.00;;;1.80;;
7647;SDS011;3866;48.020;11.720;2024-02-16T03:51:23;2.20;;;1.97;;
7647;SDS011;3866;48.020;11.720;2024-02-16T03:53:50;2.03;;;1.80;;
7647;SDS011;3866;48.020;11.720;2024-02-16T03:56:20;1.83;;;1.73;;
7647;SDS011;3866;48.020;11.720;2024-02-16T03:58:47;2.00;;;1.80;;
7647;SDS011;3866;48.020;11.720;2024-02-16T04:01:14;2.03;;;1.73;;
7647;SDS011;3866;48.020;11.720;2024-02-16T04:03:42;2.00;;;1.70;;
7647;SDS011;3866;48.020;11.720;2024-02-16T04:06:11;2.17;;;1.97;;
7647;SDS011;3866;48.020;11.720;2024-02-16T04:08:38;1.97;;;1.53;;
7647;SDS011;3866;48.020;11.720;2024-02-16T04:11:05;2.10;;;2.00;;
7647;SDS011;3866;48.020;11.720;2024-02-16T04:13:32;4.13;;;2.70;;
7647;SDS011;3866;48.020;11.720;2024-02-16T04:16:00;2.37;;;2.17;;
7647;SDS011;3866;48.020;11.720;2024-02-16T04:18:27;3.40;;;1.97;;
7647;SDS011;3866;48.020;11.720;2024-02-16T04:20:54;5.00;;;2.00;;
7647;SDS011;3866;48.020;11.720;2024-02-16T04:23:23;3.03;;;2.07;;
7647;SDS011;3866;48.020;11.720;2024-02-16T04:25:49;3.03;;;1.73;;
7647;SDS011;3866;48.020;11.720;2024-02-16T04:28:17;2.10;;;1.87;;
7647;SDS011;3866;48.020;11.720;2024-02-16T04:30:44;2.40;;;2.20;;
7647;SDS011;3866;48.020;11.720;2024-02-16T04:33:11;2.10;;;2.00;;
7647;SDS011;3866;48.020;11.720;2024-02-16T04:35:38;1.80;;;1.70;;
7647;SDS011;3866;48.020;11.720;2024-02-16T04:38:05;3.67;;;2.03;;
7647;SDS011;3866;48.020;11.720;2024-02-16T04:40:34;3.70;;;2.10;;
7647;SDS011;3866;48.020;11.720;2024-02-16T04:43:03;2.33;;;1.97;;
7647;SDS011;3866;48.020;11.720;2024-02-16T04:45:30;3.07;;;2.10;;
7647;SDS011;3866;48.020;11.720;2024-02-16T04:47:57;2.47;;;1.90;;
7647;SDS011;3866;48.020;11.720;2024-02-16T04:50:24;2.07;;;1.80;;
7647;SDS011;3866;48.020;11.720;2024-02-16T04:52:51;1.70;;;1.60;;
7647;SDS011;3866;48.020;11.720;2024-02-16T04:55:18;1.73;;;1.63;;
7647;SDS011;3866;48.020;11.720;2024-02-16T04:57:47;1.70;;;1.60;;
7647;SDS011;3866;48.020;11.720;2024-02-16T05:00:14;1.73;;;1.63;;
7647;SDS011;3866;48.020;11.720;2024-02-16T05:02:41;1.60;;;1.50;;
7647;SDS011;3866;48.020;11.720;2024-02-16T05:05:08;2.50;;;2.00;;
7647;SDS011;3866;48.020;11.720;2024-02-16T05:07:35;2.30;;;1.77;;
7647;SDS011;3866;48.020;11.720;2024-02-16T05:10:02;3.73;;;1.80;;
7647;SDS011;3866;48.020;11.720;2024-02-16T05:12:29;1.97;;;1.77;;
7647;SDS011;3866;48.020;11.720;2024-02-16T05:14:58;2.20;;;2.00;;
7647;SDS011;3866;48.020;11.720;2024-02-16T05:17:24;2.20;;;1.83;;
7647;SDS011;3866;48.020;11.720;2024-02-16T05:19:51;3.90;;;2.60;;
7647;SDS011;3866;48.020;11.720;2024-02-16T05:22:19;2.80;;;2.60;;
7647;SDS011;3866;48.020;11.720;2024-02-16T05:24:46;9.43;;;7.00;;
7647;SDS011;3866;48.020;11.720;2024-02-16T05:27:14;1.80;;;1.70;;
7647;SDS011;3866;48.020;11.720;2024-02-16T05:29:40;2.63;;;1.80;;
7647;SDS011;3866;48.020;11.720;2024-02-16T05:32:09;2.30;;;2.10;;
7647;SDS011;3866;48.020;11.720;2024-02-16T05:34:37;2.13;;;1.90;;
7647;SDS011;3866;48.020;11.720;2024-02-16T05:37:04;3.13;;;2.47;;
7647;SDS011;3866;48.020;11.720;2024-02-16T05:39:32;1.93;;;1.80;;
7647;SDS011;3866;48.020;11.720;2024-02-16T05:42:01;2.53;;;2.07;;
7647;SDS011;3866;48.020;11.720;2024-02-16T05:44:28;5.33;;;2.03;;
7647;SDS011;3866;48.020;11.720;2024-02-16T05:46:57;6.17;;;2.60;;
7647;SDS011;3866;48.020;11.720;2024-02-16T05:49:26;3.17;;;2.03;;
7647;SDS011;3866;48.020;11.720;2024-02-16T05:51:53;3.23;;;2.17;;
7647;SDS011;3866;48.020;11.720;2024-02-16T05:54:42;4.47;;;2.73;;
7647;SDS011;3866;48.020;11.720;2024-02-16T05:57:10;3.70;;;1.87;;
7647;SDS011;3866;48.020;11.720;2024-02-16T05:59:37;2.10;;;1.90;;
7647;SDS011;3866;48.020;11.720;2024-02-16T06:02:04;3.20;;;2.00;;
7647;SDS011;3866;48.020;11.720;2024-02-16T06:04:33;2.50;;;1.53;;
7647;SDS011;3866;48.020;11.720;2024-02-16T06:07:00;1.60;;;1.50;;
7647;SDS011;3866;48.020;11.720;2024-02-16T06:09:27;1.57;;;1.47;;
7647;SDS011;3866;48.020;11.720;2024-02-16T06:12:00;2.53;;;1.57;;
7647;SDS011;3866;48.020;11.720;2024-02-16T06:14:29;3.97;;;2.03;;
7647;SDS011;3866;48.020;11.720;2024-02-16T06:16:56;3.70;;;1.90;;
7647;SDS011;3866;48.020;11.720;2024-02-16T06:19:23;1.77;;;1.63;;
7647;SDS011;3866;48.020;11.720;2024-02-16T06:21:52;1.70;;;1.60;;
7647;SDS011;3866;48.020;11.720;2024-02-16T06:24:19;1.77;;;1.40;;
7647;SDS011;3866;48.020;11.720;2024-02-16T06:26:46;1.40;;;1.30;;
7647;SDS011;3866;48.020;11.720;2024-02-16T06:29:13;3.23;;;1.33;;
7647;SDS011;3866;48.020;11.720;2024-02-16T06:31:40;1.47;;;1.27;;
7647;SDS011;3866;48.020;11.720;2024-02-16T06:34:06;1.83;;;1.40;;
7647;SDS011;3866;48.020;11.720;2024-02-16T06:36:34;3.27;;;1.50;;
7647;SDS011;3866;48.020;11.720;2024-02-16T06:39:02;1.40;;;1.30;;
7647;SDS011;3866;48.020;11.720;2024-02-16T06:41:29;2.80;;;1.50;;
7647;SDS011;3866;48.020;11.720;2024-02-16T06:43:56;1.70;;;1.60;;
7647;SDS011;3866;48.020;11.720;2024-02-16T06:46:23;2.50;;;1.53;;
7647;SDS011;3866;48.020;11.720;2024-02-16T06:48:52;1.63;;;1.53;;
7647;SDS011;3866;48.020;11.720;2024-02-16T06:51:21;2.73;;;1.37;;
7647;SDS011;3866;48.020;11.720;2024-02-16T06:53:48;1.73;;;1.43;;
7647;SDS011;3866;48.020;11.720;2024-02-16T06:56:17;1.47;;;1.37;;
7647;SDS011;3866;48.020;11.720;2024-02-16T06:58:44;2.13;;;1.60;;
7647;SDS011;3866;48.020;11.720;2024-02-16T07:01:12;2.97;;;1.50;;
7647;SDS011;3866;48.020;11.720;2024-02-16T07:03:39;2.17;;;1.50;;
7647;SDS011;3866;48.020;11.720;2024-02-16T07:06:06;1.60;;;1.50;;
7647;SDS011;3866;48.020;11.720;2024-02-16T07:08:35;4.03;;;1.47;;
7647;SDS011;3866;48.020;11.720;2024-02-16T07:11:02;2.20;;;1.40;;
7647;SDS011;3866;48.020;11.720;2024-02-16T07:13:30;4.67;;;1.37;;
7647;SDS011;3866;48.020;11.720;2024-02-16T07:15:57;3.70;;;1.47;;
7647;SDS011;3866;48.020;11.720;2024-02-16T07:18:24;1.60;;;1.30;;
7647;SDS011;3866;48.020;11.720;2024-02-16T07:20:51;2.03;;;1.53;;
7647;SDS011;3866;48.020;11.720;2024-02-16T07:23:18;2.03;;;1.70;;
7647;SDS011;3866;48.020;11.720;2024-02-16T07:25:44;2.00;;;1.90;;
7647;SDS011;3866;48.020;11.720;2024-02-16T07:28:13;3.07;;;1.90;;
7647;SDS011;3866;48.020;11.720;2024-02-16T07:30:41;4.80;;;1.77;;
7647;SDS011;3866;48.020;11.720;2024-02-16T07:33:08;2.00;;;1.80;;
7647;SDS011;3866;48.020;11.720;2024-02-16T07:35:35;3.20;;;1.57;;
7647;SDS011;3866;48.020;11.720;2024-02-16T07:38:03;1.53;;;1.30;;
7647;SDS011;3866;48.020;11.720;2024-02-16T07:40:30;1.90;;;1.43;;
7647;SDS011;3866;48.020;11.720;2024-02-16T07:42:57;3.57;;;1.40;;
7647;SDS011;3866;48.020;11.720;2024-02-16T07:45:24;2.13;;;1.47;;
7647;SDS011;3866;48.020;11.720;2024-02-16T07:47:53;2.33;;;1.20;;
7647;SDS011;3866;48.020;11.720;2024-02-16T07:50:20;1.47;;;1.37;;
7647;SDS011;3866;48.020;11.720;2024-02-16T07:52:48;2.53;;;1.40;;
7647;SDS011;3866;48.020;11.720;2024-02-16T07:55:15;1.93;;;1.47;;
7647;SDS011;3866;48.020;11.720;2024-02-16T07:57:43;1.60;;;1.27;;
7647;SDS011;3866;48.020;11.720;2024-02-16T08:00:10;2.83;;;1.27;;
7647;SDS011;3866;48.020;11.720;2024-02-16T08:02:38;2.20;;;1.30;;
7647;SDS011;3866;48.020;11.720;2024-02-16T08:05:08;1.63;;;1.37;;
7647;SDS011;3866;48.020;11.720;2024-02-16T08:07:35;1.43;;;1.33;;
7647;SDS011;3866;48.020;11.720;2024-02-16T08:10:02;3.70;;;1.30;;
7647;SDS011;3866;48.020;11.720;2024-02-16T08:12:29;1.73;;;1.10;;
7647;SDS011;3866;48.020;11.720;2024-02-16T08:14:57;5.20;;;2.50;;
7647;SDS011;3866;48.020;11.720;2024-02-16T08:17:24;3.00;;;1.13;;
7647;SDS011;3866;48.020;11.720;2024-02-16T08:19:51;1.37;;;1.07;;
7647;SDS011;3866;48.020;11.720;2024-02-16T08:22:20;3.60;;;1.43;;
7647;SDS011;3866;48.020;11.720;2024-02-16T08:24:48;2.80;;;1.97;;
7647;SDS011;3866;48.020;11.720;2024-02-16T08:27:15;3.30;;;1.90;;
7647;SDS011;3866;48.020;11.720;2024-02-16T08:29:42;1.27;;;1.10;;
7647;SDS011;3866;48.020;11.720;2024-02-16T08:32:09;2.70;;;1.63;;
7647;SDS011;3866;48.020;11.720;2024-02-16T08:34:36;3.30;;;1.43;;
7647;SDS011;3866;48.020;11.720;2024-02-16T08:37:03;1.53;;;1.43;;
7647;SDS011;3866;48.020;11.720;2024-02-16T08:39:33;3.73;;;1.50;;
7647;SDS011;3866;48.020;11.720;2024-02-16T08:42:00;2.90;;;1.30;;
7647;SDS011;3866;48.020;11.720;2024-02-16T08:44:28;1.87;;;1.27;;
7647;SDS011;3866;48.020;11.720;2024-02-16T08:46:57;3.90;;;1.40;;
7647;SDS011;3866;48.020;11.720;2024-02-16T08:49:24;1.70;;;0.70;;
7647;SDS011;3866;48.020;11.720;2024-02-16T08:51:52;1.57;;;0.87;;
7647;SDS011;3866;48.020;11.720;2024-02-16T08:54:18;0.87;;;0.87;;
7647;SDS011;3866;48.020;11.720;2024-02-16T08:56:47;1.70;;;0.90;;
7647;SDS011;3866;48.020;11.720;2024-02-16T08:59:14;0.77;;;0.70;;
7647;SDS011;3866;48.020;11.720;2024-02-16T09:01:42;1.20;;;0.80;;
7647;SDS011;3866;48.020;11.720;2024-02-16T09:04:09;2.10;;;0.80;;
7647;SDS011;3866;48.020;11.720;2024-02-16T09:06:36;0.93;;;0.60;;
7647;SDS011;3866;48.020;11.720;2024-02-16T09:09:04;1.40;;;0.50;;
7647;SDS011;3866;48.020;11.720;2024-02-16T09:11:32;0.60;;;0.50;;
7647;SDS011;3866;48.020;11.720;2024-02-16T09:14:00;2.10;;;0.80;;
7647;SDS011;3866;48.020;11.720;2024-02-16T09:16:27;1.53;;;1.10;;
7647;SDS011;3866;48.020;11.720;2024-02-16T09:18:54;1.00;;;0.90;;
7647;SDS011;3866;48.020;11.720;2024-02-16T09:21:20;0.90;;;0.60;;
7647;SDS011;3866;48.020;11.720;2024-02-16T09:23:49;0.50;;;0.50;;
7647;SDS011;3866;48.020;11.720;2024-02-16T09:26:16;1.20;;;0.80;;
7647;SDS011;3866;48.020;11.720;2024-02-16T09:28:42;0.90;;;0.60;;
7647;SDS011;3866;48.020;11.720;2024-02-16T09:31:13;2.07;;;0.47;;
7647;SDS011;3866;48.020;11.720;2024-02-16T09:33:40;0.70;;;0.50;;
7647;SDS011;3866;48.020;11.720;2024-02-16T09:36:07;2.17;;;0.70;;
7647;SDS011;3866;48.020;11.720;2024-02-16T09:38:34;1.70;;;0.90;;
7647;SDS011;3866;48.020;11.720;2024-02-16T09:41:01;0.67;;;0.47;;
7647;SDS011;3866;48.020;11.720;2024-02-16T09:43:29;1.47;;;0.87;;
7647;SDS011;3866;48.020;11.720;2024-02-16T09:45:56;2.10;;;0.50;;
7647;SDS011;3866;48.020;11.720;2024-02-16T09:48:27;1.43;;;0.80;;
7647;SDS011;3866;48.020;11.720;2024-02-16T09:50:54;0.50;;;0.40;;
7647;SDS011;3866;48.020;11.720;2024-02-16T09:53:24;1.40;;;0.40;;
7647;SDS011;3866;48.020;11.720;2024-02-16T09:55:52;0.40;;;0.30;;
7647;SDS011;3866;48.020;11.720;2024-02-16T09:58:19;0.70;;;0.50;;
7647;SDS011;3866;48.020;11.720;2024-02-16T10:00:50;0.90;;;0.50;;
7647;SDS011;3866;48.020;11.720;2024-02-16T10:03:21;1.30;;;0.80;;
7647;SDS011;3866;48.020;11.720;2024-02-16T10:06:03;2.93;;;0.70;;
7647;SDS011;3866;48.020;11.720;2024-02-16T10:08:31;1.33;;;0.60;;
7647;SDS011;3866;48.020;11.720;2024-02-16T10:11:01;0.83;;;0.57;;
7647;SDS011;3866;48.020;11.720;2024-02-16T10:13:29;1.67;;;0.60;;
7647;SDS011;3866;48.020;11.720;2024-02-16T10:16:06;0.77;;;0.67;;
7647;SDS011;3866;48.020;11.720;2024-02-16T10:18:35;1.77;;;0.60;;
7647;SDS011;3866;48.020;11.720;2024-02-16T10:21:02;0.63;;;0.50;;
7647;SDS011;3866;48.020;11.720;2024-02-16T10:23:30;2.03;;;0.50;;
7647;SDS011;3866;48.020;11.720;2024-02-16T10:25:57;2.13;;;0.63;;
7647;SDS011;3866;48.020;11.720;2024-02-16T10:28:25;1.80;;;0.60;;
7647;SDS011;3866;48.020;11.720;2024-02-16T10:30:57;0.97;;;0.40;;
7647;SDS011;3866;48.020;11.720;2024-02-16T10:33:26;2.43;;;0.60;;
7647;SDS011;3866;48.020;11.720;2024-02-16T10:35:56;1.30;;;0.60;;
7647;SDS011;3866;48.020;11.720;2024-02-16T10:38:24;0.50;;;0.50;;
7647;SDS011;3866;48.020;11.720;2024-02-16T10:40:52;0.40;;;0.30;;
7647;SDS011;3866;48.020;11.720;2024-02-16T10:43:20;0.30;;;0.30;;
7647;SDS011;3866;48.020;11.720;2024-02-16T10:45:48;0.33;;;0.30;;
7647;SDS011;3866;48.020;11.720;2024-02-16T10:48:17;1.03;;;0.40;;
7647;SDS011;3866;48.020;11.720;2024-02-16T10:50:45;0.60;;;0.60;;
7647;SDS011;3866;48.020;11.720;2024-02-16T10:53:23;1.03;;;0.50;;
7647;SDS011;3866;48.020;11.720;2024-02-16T10:55:56;1.73;;;0.50;;
7647;SDS011;3866;48.020;11.720;2024-02-16T10:58:23;1.40;;;0.60;;
7647;SDS011;3866;48.020;11.720;2024-02-16T11:00:51;0.40;;;0.40;;
7647;SDS011;3866;48.020;11.720;2024-02-16T11:03:21;0.40;;;0.40;;
7647;SDS011;3866;48.020;11.720;2024-02-16T11:05:49;1.47;;;0.50;;
7647;SDS011;3866;48.020;11.720;2024-02-16T11:08:18;1.57;;;0.77;;
7647;SDS011;3866;48.020;11.720;2024-02-16T11:10:58;0.40;;;0.40;;
7647;SDS011;3866;48.020;11.720;2024-02-16T11:13:26;0.73;;;0.60;;
7647;SDS011;3866;48.020;11.720;2024-02-16T11:15:58;1.23;;;0.70;;
7647;SDS011;3866;48.020;11.720;2024-02-16T11:18:26;1.27;;;0.60;;
7647;SDS011;3866;48.020;11.720;2024-02-16T11:20:54;0.60;;;0.60;;
7647;SDS011;3866;48.020;11.720;2024-02-16T11:23:28;1.67;;;0.70;;
7647;SDS011;3866;48.020;11.720;2024-02-16T11:26:01;2.07;;;1.20;;
7647;SDS011;3866;48.020;11.720;2024-02-16T11:28:28;1.03;;;0.87;;
7647;SDS011;3866;48.020;11.720;2024-02-16T11:30:58;1.10;;;0.60;;
7647;SDS011;3866;48.020;11.720;2024-02-16T11:33:25;1.63;;;0.77;;
7647;SDS011;3866;48.020;11.720;2024-02-16T11:35:53;2.53;;;0.87;;
7647;SDS011;3866;48.020;11.720;2024-02-16T11:38:21;0.57;;;0.37;;
7647;SDS011;3866;48.020;11.720;2024-02-16T11:40:56;0.70;;;0.70;;
7647;SDS011;3866;48.020;11.720;2024-02-16T11:43:24;1.50;;;0.90;;
7647;SDS011;3866;48.020;11.720;2024-02-16T11:45:52;1.37;;;0.70;;
7647;SDS011;3866;48.020;11.720;2024-02-16T11:48:19;1.83;;;0.53;;
7647;SDS011;3866;48.020;11.720;2024-02-16T11:50:48;0.97;;;0.60;;
7647;SDS011;3866;48.020;11.720;2024-02-16T11:53:16;0.63;;;0.63;;
7647;SDS011;3866;48.020;11.720;2024-02-16T11:55:48;2.53;;;1.07;;
7647;SDS011;3866;48.020;11.720;2024-02-16T11:58:17;0.90;;;0.50;;
7647;SDS011;3866;48.020;11.720;2024-02-16T12:00:45;0.60;;;0.40;;
7647;SDS011;3866;48.020;11.720;2024-02-16T12:03:17;0.97;;;0.87;;
7647;SDS011;3866;48.020;11.720;2024-02-16T12:05:49;2.60;;;0.80;;
7647;SDS011;3866;48.020;11.720;2024-02-16T12:08:17;1.23;;;0.53;;
7647;SDS011;3866;48.020;11.720;2024-02-16T12:10:45;2.87;;;1.10;;
7647;SDS011;3866;48.020;11.720;2024-02-16T12:13:13;1.10;;;0.63;;
7647;SDS011;3866;48.020;11.720;2024-02-16T12:15:42;0.80;;;0.80;;
7647;SDS011;3866;48.020;11.720;2024-02-16T12:18:10;1.43;;;0.67;;
7647;SDS011;3866;48.020;11.720;2024-02-16T12:20:37;1.40;;;0.80;;
7647;SDS011;3866;48.020;11.720;2024-02-16T12:23:10;1.83;;;0.70;;
7647;SDS011;3866;48.020;11.720;2024-02-16T12:25:38;0.77;;;0.77;;
7647;SDS011;3866;48.020;11.720;2024-02-16T12:28:05;0.73;;;0.70;;
7647;SDS011;3866;48.020;11.720;2024-02-16T12:30:33;0.80;;;0.70;;
7647;SDS011;3866;48.020;11.720;2024-02-16T12:33:01;1.57;;;0.90;;
7647;SDS011;3866;48.020;11.720;2024-02-16T12:35:28;1.57;;;0.63;;
7647;SDS011;3866;48.020;11.720;2024-02-16T12:37:55;1.57;;;0.60;;
7647;SDS011;3866;48.020;11.720;2024-02-16T12:40:23;1.23;;;0.70;;
7647;SDS011;3866;48.020;11.720;2024-02-16T12:42:51;0.80;;;0.70;;
7647;SDS011;3866;48.020;11.720;2024-02-16T12:45:19;1.83;;;0.70;;
7647;SDS011;3866;48.020;11.720;2024-02-16T12:47:46;0.60;;;0.60;;
7647;SDS011;3866;48.020;11.720;2024-02-16T12:50:16;2.83;;;1.13;;
7647;SDS011;3866;48.020;11.720;2024-02-16T12:52:43;1.33;;;0.60;;
7647;SDS011;3866;48.020;11.720;2024-02-16T12:55:10;0.70;;;0.60;;
7647;SDS011;3866;48.020;11.720;2024-02-16T12:57:38;1.00;;;0.80;;
7647;SDS011;3866;48.020;11.720;2024-02-16T13:00:06;1.50;;;0.77;;
7647;SDS011;3866;48.020;11.720;2024-02-16T13:02:34;1.90;;;1.00;;
7647;SDS011;3866;48.020;11.720;2024-02-16T13:05:00;2.30;;;1.00;;
7647;SDS011;3866;48.020;11.720;2024-02-16T13:07:29;2.03;;;1.10;;
7647;SDS011;3866;48.020;11.720;2024-02-16T13:09:56;0.70;;;0.70;;
7647;SDS011;3866;48.020;11.720;2024-02-16T13:12:22;1.87;;;0.97;;
7647;SDS011;3866;48.020;11.720;2024-02-16T13:14:49;1.53;;;0.80;;
7647;SDS011;3866;48.020;11.720;2024-02-16T13:17:16;1.67;;;1.10;;
7647;SDS011;3866;48.020;11.720;2024-02-16T13:19:43;1.37;;;0.70;;
7647;SDS011;3866;48.020;11.720;2024-02-16T13:22:10;2.13;;;0.90;;
7647;SDS011;3866;48.020;11.720;2024-02-16T13:24:38;2.20;;;1.30;;
7647;SDS011;3866;48.020;11.720;2024-02-16T13:27:05;1.37;;;0.87;;
7647;SDS011;3866;48.020;11.720;2024-02-16T13:29:32;2.23;;;1.00;;
7647;SDS011;3866;48.020;11.720;2024-02-16T13:31:59;1.20;;;0.60;;
7647;SDS011;3866;48.020;11.720;2024-02-16T13:34:26;1.50;;;0.97;;
7647;SDS011;3866;48.020;11.720;2024-02-16T13:36:53;1.67;;;0.77;;
7647;SDS011;3866;48.020;11.720;2024-02-16T13:39:20;1.70;;;1.17;;
7647;SDS011;3866;48.020;11.720;2024-02-16T13:41:49;2.37;;;1.40;;
7647;SDS011;3866;48.020;11.720;2024-02-16T13:44:16;1.53;;;1.00;;
7647;SDS011;3866;48.020;11.720;2024-02-16T13:46:43;2.60;;;1.20;;
7647;SDS011;3866;48.020;11.720;2024-02-16T13:49:12;1.67;;;1.10;;
7647;SDS011;3866;48.020;11.720;2024-02-16T13:51:39;2.50;;;1.03;;
7647;SDS011;3866;48.020;11.720;2024-02-16T13:54:06;3.03;;;0.67;;
7647;SDS011;3866;48.020;11.720;2024-02-16T13:56:34;2.57;;;0.87;;
7647;SDS011;3866;48.020;11.720;2024-02-16T13:59:05;3.73;;;1.13;;
7647;SDS011;3866;48.020;11.720;2024-02-16T14:01:32;3.73;;;1.00;;
7647;SDS011;3866;48.020;11.720;2024-02-16T14:03:59;2.53;;;1.07;;
7647;SDS011;3866;48.020;11.720;2024-02-16T14:06:28;3.00;;;1.10;;
7647;SDS011;3866;48.020;11.720;2024-02-16T14:08:56;1.90;;;1.00;;
7647;SDS011;3866;48.020;11.720;2024-02-16T14:11:23;2.77;;;0.90;;
7647;SDS011;3866;48.020;11.720;2024-02-16T14:13:50;1.63;;;0.87;;
7647;SDS011;3866;48.020;11.720;2024-02-16T14:16:18;3.17;;;1.07;;
7647;SDS011;3866;48.020;11.720;2024-02-16T14:18:45;1.30;;;0.80;;
7647;SDS011;3866;48.020;11.720;2024-02-16T14:21:13;1.60;;;0.87;;
7647;SDS011;3866;48.020;11.720;2024-02-16T14:23:40;1.77;;;1.03;;
7647;SDS011;3866;48.020;11.720;2024-02-16T14:26:08;5.47;;;3.17;;
7647;SDS011;3866;48.020;11.720;2024-02-16T14:28:36;1.27;;;0.77;;
7647;SDS011;3866;48.020;11.720;2024-02-16T14:31:03;18.37;;;10.60;;
7647;SDS011;3866;48.020;11.720;2024-02-16T14:33:32;4.13;;;2.10;;
7647;SDS011;3866;48.020;11.720;2024-02-16T14:35:59;2.13;;;1.07;;
7647;SDS011;3866;48.020;11.720;2024-02-16T14:38:26;2.07;;;0.70;;
7647;SDS011;3866;48.020;11.720;2024-02-16T14:40:54;1.20;;;0.77;;
7647;SDS011;3866;48.020;11.720;2024-02-16T14:43:20;3.27;;;1.10;;
7647;SDS011;3866;48.020;11.720;2024-02-16T14:45:48;1.30;;;0.90;;
7647;SDS011;3866;48.020;11.720;2024-02-16T14:48:14;2.53;;;1.00;;
7647;SDS011;3866;48.020;11.720;2024-02-16T14:50:43;2.37;;;0.87;;
7647;SDS011;3866;48.020;11.720;2024-02-16T14:53:10;2.43;;;0.87;;
7647;SDS011;3866;48.020;11.720;2024-02-16T14:55:36;2.10;;;0.83;;
7647;SDS011;3866;48.020;11.720;2024-02-16T14:58:03;2.37;;;0.80;;
7647;SDS011;3866;48.020;11.720;2024-02-16T15:00:30;2.13;;;0.80;;
7647;SDS011;3866;48.020;11.720;2024-02-16T15:02:59;1.90;;;0.90;;